createdAt,value
2022-11-16T00:01:40.897Z,99974.47
2022-11-16T00:04:09.558Z,99968.03
2022-11-16T00:06:35.845Z,99976.44
2022-11-16T00:09:22.088Z,99971.47
2022-11-16T00:11:51.080Z,99971.88
2022-11-16T00:14:19.144Z,99972.66
2022-11-16T00:16:45.534Z,99975.75
2022-11-16T00:19:12.893Z,99970.44
2022-11-16T00:21:39.879Z,99978.41
2022-11-16T00:24:07.056Z,99966.66
2022-11-16T00:26:33.357Z,99971.19
2022-11-16T00:28:59.713Z,99967.00
2022-11-16T00:31:26.298Z,99963.22
2022-11-16T00:33:52.666Z,99964.41
2022-11-16T00:36:18.981Z,99959.09
2022-11-16T00:38:45.335Z,99965.22
2022-11-16T00:41:11.634Z,99960.66
2022-11-16T00:43:38.183Z,99967.50
2022-11-16T00:46:05.229Z,99961.06
2022-11-16T00:48:32.068Z,99957.28
2022-11-16T00:50:58.667Z,99955.41
2022-11-16T00:53:24.983Z,99949.31
2022-11-16T00:55:51.611Z,99953.50
2022-11-16T00:58:17.897Z,99947.09
2022-11-16T01:00:44.246Z,99956.94
2022-11-16T01:03:10.771Z,99952.41
2022-11-16T01:05:37.152Z,99945.53
2022-11-16T01:08:03.782Z,99945.53
2022-11-16T01:10:30.488Z,99954.28
2022-11-16T01:12:57.115Z,99943.63
2022-11-16T01:15:25.655Z,99938.31
2022-11-16T01:17:53.734Z,99943.31
2022-11-16T01:20:22.766Z,99941.78
2022-11-16T01:22:49.142Z,99947.09
2022-11-16T01:25:16.392Z,99937.97
2022-11-16T01:27:43.669Z,99942.19
2022-11-16T01:30:12.811Z,99935.31
2022-11-16T01:32:39.168Z,99927.34
2022-11-16T01:35:06.065Z,99934.19
2022-11-16T01:37:33.211Z,99923.56
2022-11-16T01:39:59.574Z,99931.97
2022-11-16T01:42:28.309Z,99938.81
2022-11-16T01:44:58.213Z,99927.41
2022-11-16T01:47:24.617Z,99928.16
2022-11-16T01:49:57.998Z,99931.97
2022-11-16T01:52:28.982Z,99935.06
2022-11-16T01:54:55.642Z,99928.16
2022-11-16T01:57:32.563Z,99933.50
2022-11-16T02:00:00.784Z,99922.94
2022-11-16T02:02:27.425Z,99924.84
2022-11-16T02:04:55.269Z,99914.97
2022-11-16T02:07:54.965Z,99916.84
2022-11-16T02:10:41.343Z,99916.84
2022-11-16T02:13:32.367Z,99908.88
2022-11-16T02:16:14.460Z,99908.88
2022-11-16T02:18:50.507Z,99911.16
2022-11-16T02:21:40.983Z,99905.09
2022-11-16T02:24:43.709Z,99901.66
2022-11-16T02:27:28.424Z,99899.00
2022-11-16T02:29:56.523Z,99897.88
2022-11-16T02:32:42.346Z,99897.09
2022-11-16T02:35:32.447Z,99899.75
2022-11-16T02:38:09.202Z,99903.97
2022-11-16T02:40:39.114Z,99898.63
2022-11-16T02:43:12.000Z,99897.09
2022-11-16T02:45:42.759Z,99893.31
2022-11-16T02:48:14.942Z,99905.53
2022-11-16T02:50:42.611Z,99902.06
2022-11-16T02:53:08.954Z,99891.41
2022-11-16T02:55:36.504Z,99897.88
2022-11-16T02:58:09.686Z,99901.28
2022-11-16T03:00:44.573Z,99899.75
2022-11-16T03:03:25.873Z,99904.72
2022-11-16T03:06:06.942Z,99895.66
2022-11-16T03:08:49.696Z,99896.75
2022-11-16T03:11:35.147Z,99902.06
2022-11-16T03:14:14.641Z,99903.97
2022-11-16T03:16:46.079Z,99902.06
2022-11-16T03:19:17.102Z,99907.38
2022-11-16T03:22:23.142Z,99905.09
2022-11-16T03:24:50.508Z,99906.22
2022-11-16T03:27:44.909Z,99914.19
2022-11-16T03:30:18.142Z,99910.34
2022-11-16T03:32:56.704Z,99905.34
2022-11-16T03:35:31.894Z,99909.13
2022-11-16T03:38:00.654Z,99903.38
2022-11-16T03:40:30.706Z,99904.50
2022-11-16T03:43:00.036Z,99909.38
2022-11-16T03:45:26.827Z,99909.38
2022-11-16T03:47:53.118Z,99915.84
2022-11-16T03:50:19.890Z,99913.53
2022-11-16T03:52:46.344Z,99908.53
2022-11-16T03:55:12.653Z,99920.28
2022-11-16T03:57:38.992Z,99916.09
2022-11-16T04:00:06.896Z,99919.47
2022-11-16T04:02:33.194Z,99919.00
2022-11-16T04:05:18.377Z,99930.00
2022-11-16T04:08:03.562Z,99926.13
2022-11-16T04:10:48.239Z,99932.56
2022-11-16T04:13:34.604Z,99926.84
2022-11-16T04:16:19.304Z,99933.59
2022-11-16T04:19:04.058Z,99928.22
2022-11-16T04:21:56.390Z,99935.75
2022-11-16T04:24:27.914Z,99927.69
2022-11-16T04:27:17.550Z,99926.47
2022-11-16T04:29:43.943Z,99934.03
2022-11-16T04:32:30.268Z,99931.28
2022-11-16T04:35:15.426Z,99936.53
2022-11-16T04:37:52.320Z,99934.88
2022-11-16T04:40:21.587Z,99948.06
2022-11-16T04:42:54.125Z,99944.56
2022-11-16T04:45:40.454Z,99941.03
2022-11-16T04:48:06.876Z,99944.72
2022-11-16T04:50:33.660Z,99945.38
2022-11-16T04:53:00.168Z,99940.00
2022-11-16T04:55:26.710Z,99938.75
2022-11-16T04:57:53.339Z,99937.91
2022-11-16T05:00:20.519Z,99948.44
2022-11-16T05:02:47.201Z,99953.34
2022-11-16T05:05:13.948Z,99943.38
2022-11-16T05:07:40.274Z,99949.38
2022-11-16T05:10:07.607Z,99947.69
2022-11-16T05:12:34.951Z,99944.50
2022-11-16T05:15:01.730Z,99951.59
2022-11-16T05:17:29.198Z,99964.00
2022-11-16T05:20:14.115Z,99968.47
2022-11-16T05:22:40.489Z,99969.13
2022-11-16T05:25:08.938Z,99969.00
2022-11-16T05:27:35.992Z,99969.34
2022-11-16T05:30:02.322Z,99968.94
2022-11-16T05:32:28.621Z,99965.03
2022-11-16T05:34:55.316Z,99979.00
2022-11-16T05:37:23.138Z,99974.03
2022-11-16T05:39:49.521Z,99969.81
2022-11-16T05:42:15.885Z,99975.47
2022-11-16T05:44:42.253Z,99974.69
2022-11-16T05:47:08.546Z,99979.25
2022-11-16T05:49:34.838Z,99989.09
2022-11-16T05:52:01.219Z,99989.09
2022-11-16T05:54:27.586Z,99988.41
2022-11-16T05:56:54.700Z,99991.06
2022-11-16T05:59:22.254Z,99987.19
2022-11-16T06:01:49.219Z,99989.84
2022-11-16T06:04:15.818Z,99992.84
2022-11-16T06:06:42.548Z,99990.50
2022-11-16T06:09:11.408Z,99990.84
2022-11-16T06:11:38.137Z,99988.97
2022-11-16T06:14:05.483Z,99985.88
2022-11-16T06:16:31.776Z,99994.19
2022-11-16T06:18:59.589Z,99989.97
2022-11-16T06:21:26.247Z,99983.78
2022-11-16T06:23:52.542Z,99981.56
2022-11-16T06:26:18.886Z,99978.91
2022-11-16T06:28:45.208Z,99981.91
2022-11-16T06:31:11.583Z,99986.44
2022-11-16T06:33:37.921Z,99990.53
2022-11-16T06:36:04.637Z,99996.19
2022-11-16T06:38:31.682Z,99991.53
2022-11-16T06:40:59.186Z,99992.56
2022-11-16T06:43:26.642Z,99995.84
2022-11-16T06:45:55.766Z,100004.81
2022-11-16T06:48:22.535Z,100009.22
2022-11-16T06:50:49.863Z,100012.88
2022-11-16T06:53:16.754Z,100015.44
2022-11-16T06:55:43.142Z,100016.88
2022-11-16T06:58:09.696Z,100025.34
2022-11-16T07:00:36.438Z,100019.50
2022-11-16T07:03:03.673Z,100025.00
2022-11-16T07:05:31.195Z,100015.84
2022-11-16T07:07:57.970Z,100024.44
2022-11-16T07:10:25.278Z,100022.81
2022-11-16T07:12:51.654Z,100034.19
2022-11-16T07:15:18.218Z,100033.72
2022-11-16T07:17:44.528Z,100037.47
2022-11-16T07:20:12.004Z,100040.03
2022-11-16T07:22:38.462Z,100040.66
2022-11-16T07:25:05.202Z,100040.66
2022-11-16T07:27:31.538Z,100046.94
2022-11-16T07:29:58.022Z,100052.91
2022-11-16T07:32:26.682Z,100054.34
2022-11-16T07:34:53.371Z,100055.78
2022-11-16T07:37:19.820Z,100074.00
2022-11-16T07:39:46.214Z,100065.59
2022-11-16T07:42:12.634Z,100057.97
2022-11-16T07:44:39.140Z,100064.03
2022-11-16T07:47:05.870Z,100074.34
2022-11-16T07:49:32.218Z,100069.47
2022-11-16T07:51:58.702Z,100078.97
2022-11-16T07:54:25.020Z,100079.44
2022-11-16T07:56:51.400Z,100080.59
2022-11-16T07:59:17.851Z,100086.19
2022-11-16T08:01:47.622Z,100091.41
2022-11-16T08:04:15.439Z,100091.84
2022-11-16T08:06:41.749Z,100097.56
2022-11-16T08:09:09.321Z,100097.38
2022-11-16T08:11:35.709Z,100108.63
2022-11-16T08:14:02.173Z,100102.56
2022-11-16T08:16:28.630Z,100105.03
2022-11-16T08:18:55.008Z,100105.59
2022-11-16T08:21:21.496Z,100110.56
2022-11-16T08:23:47.874Z,100106.78
2022-11-16T08:26:19.342Z,100113.41
2022-11-16T08:28:47.918Z,100109.88
2022-11-16T08:31:17.853Z,100109.66
2022-11-16T08:33:44.729Z,100106.16
2022-11-16T08:36:14.465Z,100111.25
2022-11-16T08:38:41.088Z,100110.69
2022-11-16T08:41:08.278Z,100108.25
2022-11-16T08:43:35.693Z,100109.34
2022-11-16T08:46:02.192Z,100116.19
2022-11-16T08:48:28.495Z,100115.78
2022-11-16T08:51:16.496Z,100120.78
2022-11-16T08:53:41.306Z,100126.56
2022-11-16T08:56:10.116Z,100117.09
2022-11-16T08:58:36.549Z,100121.78
2022-11-16T09:01:11.064Z,100119.47
2022-11-16T09:03:38.793Z,100116.78
2022-11-16T09:08:47.263Z,100120.41
2022-11-16T09:11:16.635Z,100124.00
2022-11-16T09:13:44.311Z,100125.34
2022-11-16T09:16:11.019Z,100120.75
2022-11-16T09:18:38.124Z,100127.66
2022-11-16T09:21:04.962Z,100129.47
2022-11-16T09:23:31.791Z,100127.50
2022-11-16T09:26:02.613Z,100125.81
2022-11-16T09:28:29.377Z,100130.81
2022-11-16T09:31:00.908Z,100133.34
2022-11-16T09:33:32.027Z,100138.00
2022-11-16T09:36:09.659Z,100130.94
2022-11-16T09:39:13.262Z,100138.03
2022-11-16T09:42:07.236Z,100146.22
2022-11-16T09:44:33.573Z,100134.47
2022-11-16T09:47:01.978Z,100139.47
2022-11-16T09:49:39.156Z,100143.00
2022-11-16T09:52:14.210Z,100134.59
2022-11-16T09:54:44.529Z,100150.44
2022-11-16T09:57:14.579Z,100141.91
2022-11-16T09:59:44.909Z,100144.09
2022-11-16T10:02:26.590Z,100144.94
2022-11-16T10:05:14.727Z,100141.41
2022-11-16T10:07:48.307Z,100150.19
2022-11-16T10:10:38.192Z,100147.22
2022-11-16T10:13:29.815Z,100140.00
2022-11-16T10:16:18.356Z,100148.47
2022-11-16T10:18:56.182Z,100137.34
2022-11-16T10:21:36.087Z,100139.03
2022-11-16T10:24:16.422Z,100137.72
2022-11-16T10:27:20.779Z,100133.16
2022-11-16T10:29:54.546Z,100137.06
2022-11-16T10:32:30.883Z,100137.91
2022-11-16T10:35:06.014Z,100133.47
2022-11-16T10:37:38.671Z,100137.00
2022-11-16T10:40:16.285Z,100141.06
2022-11-16T10:42:45.279Z,100138.94
2022-11-16T10:45:20.834Z,100131.72
2022-11-16T10:47:58.348Z,100136.84
2022-11-16T10:50:32.562Z,100133.16
2022-11-16T10:52:59.885Z,100136.59
2022-11-16T10:55:28.563Z,100136.47
2022-11-16T10:57:57.952Z,100146.19
2022-11-16T11:00:36.472Z,100137.34
2022-11-16T11:03:02.863Z,100142.59
2022-11-16T11:05:29.836Z,100136.81
2022-11-16T11:08:06.111Z,100136.75
2022-11-16T11:10:36.834Z,100145.16
2022-11-16T11:13:04.986Z,100135.63
2022-11-16T11:15:32.027Z,100139.31
2022-11-16T11:18:23.256Z,100134.16
2022-11-16T11:20:51.202Z,100141.16
2022-11-16T11:23:23.724Z,100129.78
2022-11-16T11:25:58.433Z,100134.13
2022-11-16T11:28:33.701Z,100129.38
2022-11-16T11:31:03.650Z,100118.66
2022-11-16T11:33:34.809Z,100112.63
2022-11-16T11:36:18.551Z,100106.63
2022-11-16T11:39:08.289Z,100111.44
2022-11-16T11:41:38.924Z,100111.97
2022-11-16T11:44:14.679Z,100104.81
2022-11-16T11:47:35.317Z,100099.59
2022-11-16T11:49:40.521Z,100103.53
2022-11-16T11:52:17.417Z,100090.66
2022-11-16T11:54:47.666Z,100087.72
2022-11-16T11:57:20.529Z,100089.59
2022-11-16T11:59:47.712Z,100094.09
2022-11-16T12:02:42.399Z,100096.50
2022-11-16T12:05:35.161Z,100102.06
2022-11-16T12:08:18.012Z,100098.38
2022-11-16T12:10:49.175Z,100094.59
2022-11-16T12:13:35.038Z,100093.94
2022-11-16T12:16:12.186Z,100097.25
2022-11-16T12:18:38.474Z,100097.63
2022-11-16T12:21:15.122Z,100097.09
2022-11-16T12:24:03.462Z,100095.09
2022-11-16T12:26:46.185Z,100090.56
2022-11-16T12:29:16.834Z,100088.66
2022-11-16T12:32:14.170Z,100099.94
2022-11-16T12:35:05.574Z,100096.84
2022-11-16T12:37:41.182Z,100099.41
2022-11-16T12:40:10.260Z,100091.78
2022-11-16T12:42:36.517Z,100093.72
2022-11-16T12:45:32.621Z,100082.94
2022-11-16T12:48:16.251Z,100074.16
2022-11-16T12:51:39.284Z,100067.53
2022-11-16T12:55:19.186Z,100070.91
2022-11-16T12:58:24.143Z,100060.16
2022-11-16T13:04:07.532Z,100051.13
2022-11-16T13:06:59.654Z,100058.50
2022-11-16T13:10:01.752Z,100059.28
2022-11-16T13:12:31.704Z,100055.50
2022-11-16T13:15:31.177Z,100056.25
2022-11-16T13:18:07.331Z,100044.78
2022-11-16T13:20:58.745Z,100047.00
2022-11-16T13:23:40.322Z,100042.00
2022-11-16T13:26:42.740Z,100044.31
2022-11-16T13:29:57.910Z,100033.25
2022-11-16T13:32:53.036Z,100045.03
2022-11-16T13:35:34.352Z,100048.38
2022-11-16T13:38:09.855Z,100042.97
2022-11-16T13:40:36.715Z,100050.78
2022-11-16T13:43:09.147Z,100056.66
2022-11-16T13:45:49.121Z,100050.28
2022-11-16T13:48:42.838Z,100053.47
2022-11-16T13:51:43.572Z,100044.97
2022-11-16T13:54:50.044Z,100038.41
2022-11-16T13:57:25.737Z,100039.97
2022-11-16T14:00:06.205Z,100031.19
2022-11-16T14:02:40.366Z,100027.34
2022-11-16T14:05:17.769Z,100025.03
2022-11-16T14:07:59.433Z,100023.16
2022-11-16T14:10:47.054Z,100020.91
2022-11-16T14:13:40.360Z,100029.16
2022-11-16T14:16:22.172Z,100025.03
2022-11-16T14:19:04.325Z,100018.59
2022-11-16T14:24:50.848Z,100009.66
2022-11-16T14:27:38.663Z,100009.75
2022-11-16T14:30:43.931Z,100001.84
2022-11-16T14:33:32.089Z,100002.75
2022-11-16T14:36:16.218Z,100005.69
2022-11-16T14:38:51.250Z,100004.38
2022-11-16T14:41:30.171Z,100003.59
2022-11-16T14:43:59.749Z,99996.59
2022-11-16T14:46:40.563Z,100001.31
2022-11-16T14:49:20.055Z,99992.31
2022-11-16T14:51:55.038Z,99982.00
2022-11-16T14:54:53.544Z,99982.28
2022-11-16T14:57:24.420Z,99975.63
2022-11-16T15:00:44.509Z,99975.13
2022-11-16T15:03:14.984Z,99971.09
2022-11-16T15:05:50.516Z,99966.38
2022-11-16T15:08:42.094Z,99971.47
2022-11-16T15:11:24.319Z,99974.72
2022-11-16T15:13:51.688Z,99977.19
2022-11-16T15:16:20.092Z,99978.56
2022-11-16T15:19:12.217Z,99968.50
2022-11-16T15:21:38.622Z,99958.91
2022-11-16T15:26:51.525Z,99956.91
2022-11-16T15:29:19.684Z,99943.88
2022-11-16T15:31:47.177Z,99945.63
2022-11-16T15:34:16.668Z,99941.38
2022-11-16T15:36:43.867Z,99944.56
2022-11-16T15:39:15.494Z,99943.59
2022-11-16T15:41:42.866Z,99943.47
2022-11-16T15:44:15.838Z,99936.22
2022-11-16T15:46:48.749Z,99931.47
2022-11-16T15:49:35.931Z,99924.06
2022-11-16T15:52:02.473Z,99919.66
2022-11-16T15:54:54.429Z,99914.47
2022-11-16T15:57:22.837Z,99910.47
2022-11-16T15:59:57.212Z,99903.84
2022-11-16T16:02:27.575Z,99909.84
2022-11-16T16:04:54.364Z,99907.06
2022-11-16T16:07:36.641Z,99894.03
2022-11-16T16:10:18.218Z,99876.13
2022-11-16T16:12:50.897Z,99884.75
2022-11-16T16:15:36.389Z,99904.22
2022-11-16T16:18:11.385Z,99903.97
2022-11-16T16:20:37.889Z,99904.31
2022-11-16T16:23:13.286Z,99908.50
2022-11-16T16:25:39.569Z,99901.00
2022-11-16T16:28:05.869Z,99901.31
2022-11-16T16:30:34.585Z,99889.63
2022-11-16T16:33:01.651Z,99889.28
2022-11-16T16:35:28.564Z,99888.06
2022-11-16T16:38:00.718Z,99879.66
2022-11-16T16:40:28.403Z,99874.72
2022-11-16T16:42:55.778Z,99874.94
2022-11-16T16:45:37.223Z,99879.47
2022-11-16T16:48:03.896Z,99874.50
2022-11-16T16:50:30.233Z,99869.50
2022-11-16T16:52:56.569Z,99869.41
2022-11-16T16:55:23.280Z,99874.16
2022-11-16T16:57:49.625Z,99869.06
2022-11-16T17:00:16.530Z,99867.41
2022-11-16T17:02:42.966Z,99865.84
2022-11-16T17:05:09.782Z,99856.91
2022-11-16T17:07:36.246Z,99852.69
2022-11-16T17:10:02.627Z,99848.50
2022-11-16T17:12:29.002Z,99849.94
2022-11-16T17:14:55.496Z,99854.03
2022-11-16T17:17:24.223Z,99849.81
2022-11-16T17:19:51.502Z,99851.59
2022-11-16T17:22:18.990Z,99840.88
2022-11-16T17:24:45.379Z,99841.09
2022-11-16T17:27:11.905Z,99850.47
2022-11-16T17:29:38.227Z,99851.91
2022-11-16T17:32:04.837Z,99847.59
2022-11-16T17:34:31.722Z,99846.69
2022-11-16T17:36:58.173Z,99851.88
2022-11-16T17:39:24.924Z,99857.03
2022-11-16T17:41:51.746Z,99853.16
2022-11-16T17:44:21.802Z,99847.75
2022-11-16T17:46:48.557Z,99843.09
2022-11-16T17:49:15.859Z,99827.88
2022-11-16T17:51:42.528Z,99832.72
2022-11-16T17:54:09.114Z,99828.06
2022-11-16T17:56:35.513Z,99819.22
2022-11-16T17:59:01.971Z,99828.59
2022-11-16T18:01:28.505Z,99823.66
2022-11-16T18:03:55.154Z,99821.00
2022-11-16T18:06:23.564Z,99816.78
2022-11-16T18:08:49.869Z,99818.03
2022-11-16T18:11:24.365Z,99821.09
2022-11-16T18:14:00.985Z,99815.94
2022-11-16T18:16:30.031Z,99812.63
2022-11-16T18:18:58.470Z,99815.06
2022-11-16T18:21:25.591Z,99812.19
2022-11-16T18:23:52.366Z,99807.16
2022-11-16T18:26:21.515Z,99809.59
2022-11-16T18:28:48.541Z,99812.81
2022-11-16T18:31:16.970Z,99818.22
2022-11-16T18:33:44.246Z,99815.38
2022-11-16T18:36:11.949Z,99806.44
2022-11-16T18:38:38.809Z,99815.59
2022-11-16T18:41:11.184Z,99814.47
2022-11-16T18:43:42.560Z,99804.34
2022-11-16T18:46:09.101Z,99806.31
2022-11-16T18:48:35.435Z,99802.13
2022-11-16T18:51:03.872Z,99787.09
2022-11-16T18:53:32.045Z,99786.00
2022-11-16T18:55:58.795Z,99790.97
2022-11-16T18:58:49.298Z,99785.34
2022-11-16T19:01:14.341Z,99781.13
2022-11-16T19:03:41.045Z,99770.97
2022-11-16T19:06:08.718Z,99777.94
2022-11-16T19:08:36.907Z,99775.28
2022-11-16T19:11:08.574Z,99770.00
2022-11-16T19:13:35.471Z,99763.22
2022-11-16T19:16:02.087Z,99755.72
2022-11-16T19:18:29.409Z,99757.28
2022-11-16T19:21:07.090Z,99739.81
2022-11-16T19:23:42.828Z,99731.53
2022-11-16T19:26:09.901Z,99730.09
2022-11-16T19:28:37.718Z,99720.25
2022-11-16T19:31:13.270Z,99710.41
2022-11-16T19:33:40.384Z,99706.66
2022-11-16T19:36:11.755Z,99703.56
2022-11-16T19:38:38.234Z,99703.56
2022-11-16T19:41:05.225Z,99686.88
2022-11-16T19:43:32.237Z,99681.16
2022-11-16T19:46:07.118Z,99686.53
2022-11-16T19:48:34.325Z,99685.44
2022-11-16T19:51:08.521Z,99676.16
2022-11-16T19:53:35.952Z,99670.50
2022-11-16T19:56:02.986Z,99663.75
2022-11-16T19:58:29.343Z,99655.47
2022-11-16T20:01:04.079Z,99652.03
2022-11-16T20:03:31.363Z,99651.72
2022-11-16T20:06:15.955Z,99647.94
2022-11-16T20:08:46.586Z,99634.34
2022-11-16T20:11:18.029Z,99623.75
2022-11-16T20:13:45.207Z,99630.16
2022-11-16T20:16:13.032Z,99621.09
2022-11-16T20:18:40.621Z,99615.13
2022-11-16T20:21:08.240Z,99611.34
2022-11-16T20:23:35.536Z,99612.53
2022-11-16T20:26:06.544Z,99605.69
2022-11-16T20:28:41.135Z,99611.78
2022-11-16T20:31:09.633Z,99610.66
2022-11-16T20:33:36.449Z,99610.34
2022-11-16T20:36:05.355Z,99607.75
2022-11-16T20:38:33.514Z,99604.78
2022-11-16T20:41:09.696Z,99597.25
2022-11-16T20:43:36.559Z,99592.72
2022-11-16T20:46:03.186Z,99586.75
2022-11-16T20:48:29.516Z,99578.78
2022-11-16T20:50:55.854Z,99573.91
2022-11-16T20:53:22.473Z,99575.09
2022-11-16T20:55:49.679Z,99566.81
2022-11-16T20:58:22.429Z,99568.00
2022-11-16T21:00:49.746Z,99568.75
2022-11-16T21:03:16.573Z,99565.34
2022-11-16T21:05:44.223Z,99563.03
2022-11-16T21:08:12.073Z,99553.97
2022-11-16T21:10:39.579Z,99545.31
2022-11-16T21:13:25.203Z,99528.72
2022-11-16T21:15:59.594Z,99526.50
2022-11-16T21:18:30.493Z,99511.34
2022-11-16T21:20:59.666Z,99514.00
2022-11-16T21:23:29.026Z,99514.78
2022-11-16T21:25:55.995Z,99501.91
2022-11-16T21:28:25.539Z,99504.91
2022-11-16T21:31:00.981Z,99490.88
2022-11-16T21:33:28.057Z,99481.38
2022-11-16T21:35:54.906Z,99477.63
2022-11-16T21:38:24.395Z,99479.16
2022-11-16T21:40:51.156Z,99463.59
2022-11-16T21:43:17.738Z,99469.66
2022-11-16T21:45:45.566Z,99457.50
2022-11-16T21:48:12.062Z,99456.81
2022-11-16T21:50:38.799Z,99456.38
2022-11-16T21:53:06.933Z,99436.69
2022-11-16T21:55:33.621Z,99429.84
2022-11-16T21:58:00.453Z,99426.75
2022-11-16T22:00:27.754Z,99423.00
2022-11-16T22:02:54.122Z,99419.25
2022-11-16T22:05:39.207Z,99412.41
2022-11-16T22:08:08.075Z,99403.31
2022-11-16T22:10:34.970Z,99402.19
2022-11-16T22:13:01.568Z,99410.16
2022-11-16T22:15:27.930Z,99386.69
2022-11-16T22:17:54.221Z,99382.09
2022-11-16T22:20:21.081Z,99380.22
2022-11-16T22:22:47.421Z,99367.72
2022-11-16T22:25:13.966Z,99365.06
2022-11-16T22:27:58.715Z,99363.94
2022-11-16T22:30:26.877Z,99354.84
2022-11-16T22:32:54.416Z,99340.47
2022-11-16T22:35:20.831Z,99340.47
2022-11-16T22:37:47.168Z,99326.09
2022-11-16T22:40:17.639Z,99316.94
2022-11-16T22:42:44.282Z,99312.38
2022-11-16T22:45:10.574Z,99308.63
2022-11-16T22:47:36.968Z,99307.84
2022-11-16T22:50:03.794Z,99293.81
2022-11-16T22:52:30.855Z,99281.31
2022-11-16T22:54:57.189Z,99279.44
2022-11-16T22:57:23.487Z,99273.34
2022-11-16T22:59:50.943Z,99263.09
2022-11-16T23:02:17.395Z,99249.41
2022-11-16T23:04:43.677Z,99253.19
2022-11-16T23:07:10.043Z,99241.47
2022-11-16T23:09:36.466Z,99235.03
2022-11-16T23:12:21.405Z,99224.00
2022-11-16T23:15:06.287Z,99222.88
2022-11-16T23:17:32.574Z,99208.09
2022-11-16T23:20:28.450Z,99215.63
2022-11-16T23:23:13.755Z,99206.13
2022-11-16T23:25:59.111Z,99200.06
2022-11-16T23:28:25.846Z,99194.75
2022-11-16T23:30:52.162Z,99186.78
2022-11-16T23:33:38.527Z,99187.56
2022-11-16T23:36:05.190Z,99174.28
2022-11-16T23:38:31.481Z,99173.88
2022-11-16T23:40:57.863Z,99162.84
2022-11-16T23:43:42.642Z,99143.50
2022-11-16T23:46:10.129Z,99132.50
2022-11-16T23:48:36.428Z,99129.06
2022-11-16T23:51:02.778Z,99110.50
2022-11-16T23:53:29.089Z,99100.22
2022-11-16T23:56:05.790Z,99082.78
2022-11-16T23:58:32.581Z,99066.53
